AMX1053 MMOX-MMMX
Flight info
| Callsign | AMX1053 |
|---|---|
| Flight time | 0h 44m |
| Altitude | 30000 |
| Route | OAX UT158 KODEK UT157 LARLO LARLO3B |
| Aircraft | B737/M-SDE2E3FGHIRWXY/LB1 |
Departure
| Time | 2026-04-24 01:58 |
|---|---|
| Airport | Xoxocotlán International Airport (MMOX) |
Arrival
| Time | 2026-04-24 02:42 |
|---|---|
| Airport | Mexico City Benito Juárez International Airport (MMMX) |
| Time | Latitude | Longitude | Altitude | Speed | Heading |
|---|---|---|---|---|---|
| 2026-04-24 01:30 | 17.00181 | -96.72240 | 4993 ft | 0 kts | 105° |
| 2026-04-24 01:49 | 17.00184 | -96.72252 | 4994 ft | 2 kts | 105° |
| 2026-04-24 01:49 | 17.00189 | -96.72268 | 4994 ft | 2 kts | 105° |
| 2026-04-24 01:49 | 17.00191 | -96.72285 | 4994 ft | 2 kts | 81° |
| 2026-04-24 01:50 | 17.00185 | -96.72301 | 4994 ft | 2 kts | 46° |
| 2026-04-24 01:50 | 17.00176 | -96.72308 | 4994 ft | 2 kts | 17° |
| 2026-04-24 01:50 | 17.00192 | -96.72304 | 4994 ft | 2 kts | 11° |
| 2026-04-24 01:50 | 17.00206 | -96.72301 | 4993 ft | 0 kts | 15° |
| 2026-04-24 01:54 | 17.00213 | -96.72298 | 4993 ft | 3 kts | 16° |
| 2026-04-24 01:54 | 17.00245 | -96.72289 | 4993 ft | 7 kts | 16° |
| 2026-04-24 01:54 | 17.00285 | -96.72314 | 4992 ft | 9 kts | 293° |
| 2026-04-24 01:54 | 17.00308 | -96.72398 | 4988 ft | 14 kts | 285° |
| 2026-04-24 01:55 | 17.00354 | -96.72452 | 4988 ft | 10 kts | 2° |
| 2026-04-24 01:55 | 17.00423 | -96.72435 | 4990 ft | 11 kts | 15° |
| 2026-04-24 01:55 | 17.00515 | -96.72408 | 4991 ft | 16 kts | 15° |
| 2026-04-24 01:55 | 17.00637 | -96.72373 | 4992 ft | 19 kts | 15° |
| 2026-04-24 01:56 | 17.00763 | -96.72336 | 4993 ft | 19 kts | 9° |
| 2026-04-24 01:56 | 17.00870 | -96.72356 | 4993 ft | 11 kts | 345° |
| 2026-04-24 01:56 | 17.00925 | -96.72324 | 4993 ft | 11 kts | 95° |
| 2026-04-24 01:56 | 17.00879 | -96.72301 | 4992 ft | 8 kts | 200° |
| 2026-04-24 01:57 | 17.00871 | -96.72304 | 4992 ft | 0 kts | 198° |
| 2026-04-24 01:57 | 17.00860 | -96.72308 | 4993 ft | 15 kts | 197° |
| 2026-04-24 01:57 | 17.00516 | -96.72409 | 4991 ft | 87 kts | 195° |
| 2026-04-24 01:57 | 16.99721 | -96.72641 | 4991 ft | 146 kts | 195° |
| 2026-04-24 01:58 | 16.98664 | -96.72952 | 5416 ft | 158 kts | 190° |
| 2026-04-24 01:58 | 16.97567 | -96.73207 | 6116 ft | 164 kts | 189° |
| 2026-04-24 01:58 | 16.96443 | -96.73431 | 6761 ft | 168 kts | 191° |
| 2026-04-24 01:58 | 16.95213 | -96.73717 | 7191 ft | 195 kts | 193° |
| 2026-04-24 01:59 | 16.93820 | -96.74072 | 7663 ft | 214 kts | 193° |
| 2026-04-24 01:59 | 16.92274 | -96.74477 | 7992 ft | 245 kts | 194° |
| 2026-04-24 01:59 | 16.90603 | -96.74919 | 8890 ft | 246 kts | 193° |
| 2026-04-24 01:59 | 16.88964 | -96.75350 | 10054 ft | 242 kts | 193° |
| 2026-04-24 02:00 | 16.87270 | -96.75678 | 10822 ft | 251 kts | 185° |
| 2026-04-24 02:00 | 16.85511 | -96.75681 | 11665 ft | 254 kts | 169° |
| 2026-04-24 02:00 | 16.83737 | -96.75328 | 12386 ft | 268 kts | 173° |
| 2026-04-24 02:00 | 16.81850 | -96.75397 | 13217 ft | 276 kts | 189° |
| 2026-04-24 02:01 | 16.79981 | -96.75934 | 14168 ft | 276 kts | 193° |
| 2026-04-24 02:01 | 16.78121 | -96.76138 | 15298 ft | 267 kts | 171° |
| 2026-04-24 02:01 | 16.76393 | -96.75424 | 16056 ft | 275 kts | 140° |
| 2026-04-24 02:01 | 16.75256 | -96.73828 | 16842 ft | 278 kts | 110° |
| 2026-04-24 02:02 | 16.74960 | -96.72536 | 17442 ft | 278 kts | 92° |
| 2026-04-24 02:02 | 16.75511 | -96.69949 | 18512 ft | 282 kts | 58° |
| 2026-04-24 02:02 | 16.76843 | -96.68460 | 19244 ft | 284 kts | 31° |
| 2026-04-24 02:02 | 16.78674 | -96.67733 | 19998 ft | 285 kts | 6° |
| 2026-04-24 02:03 | 16.81964 | -96.68196 | 21251 ft | 292 kts | 344° |
| 2026-04-24 02:03 | 16.83987 | -96.68842 | 21477 ft | 318 kts | 342° |
| 2026-04-24 02:03 | 16.86142 | -96.69569 | 21735 ft | 342 kts | 342° |
| 2026-04-24 02:04 | 16.88491 | -96.70353 | 21909 ft | 365 kts | 342° |
| 2026-04-24 02:04 | 16.90987 | -96.71163 | 22125 ft | 385 kts | 343° |
| 2026-04-24 02:04 | 16.93585 | -96.71988 | 22515 ft | 396 kts | 343° |
| 2026-04-24 02:04 | 16.96244 | -96.72835 | 23076 ft | 401 kts | 341° |
| 2026-04-24 02:05 | 16.98753 | -96.74102 | 23747 ft | 403 kts | 327° |
| 2026-04-24 02:05 | 17.01045 | -96.75769 | 24460 ft | 400 kts | 324° |
| 2026-04-24 02:05 | 17.03284 | -96.77468 | 25223 ft | 396 kts | 324° |
| 2026-04-24 02:05 | 17.05497 | -96.79156 | 26031 ft | 392 kts | 324° |
| 2026-04-24 02:06 | 17.07699 | -96.80821 | 26853 ft | 388 kts | 325° |
| 2026-04-24 02:06 | 17.09881 | -96.82456 | 27677 ft | 384 kts | 325° |
| 2026-04-24 02:06 | 17.12051 | -96.84070 | 28479 ft | 382 kts | 326° |
| 2026-04-24 02:06 | 17.14213 | -96.85672 | 29273 ft | 380 kts | 326° |
| 2026-04-24 02:07 | 17.16371 | -96.87267 | 29873 ft | 381 kts | 326° |
| 2026-04-24 02:07 | 17.18535 | -96.88866 | 30122 ft | 381 kts | 326° |
| 2026-04-24 02:07 | 17.20714 | -96.90476 | 30095 ft | 395 kts | 326° |
| 2026-04-24 02:07 | 17.22993 | -96.92161 | 30090 ft | 407 kts | 326° |
| 2026-04-24 02:08 | 17.25344 | -96.93901 | 30074 ft | 419 kts | 326° |
| 2026-04-24 02:08 | 17.27753 | -96.95684 | 30045 ft | 429 kts | 326° |
| 2026-04-24 02:08 | 17.32723 | -96.99365 | 30040 ft | 445 kts | 326° |
| 2026-04-24 02:09 | 17.37850 | -97.03164 | 30027 ft | 456 kts | 325° |
| 2026-04-24 02:09 | 17.43034 | -97.07009 | 30011 ft | 456 kts | 325° |
| 2026-04-24 02:10 | 17.48205 | -97.10848 | 30014 ft | 455 kts | 325° |
| 2026-04-24 02:10 | 17.53365 | -97.14682 | 30009 ft | 454 kts | 325° |
| 2026-04-24 02:11 | 17.58491 | -97.18493 | 30011 ft | 454 kts | 325° |
| 2026-04-24 02:11 | 17.63269 | -97.22811 | 30011 ft | 454 kts | 317° |
| 2026-04-24 02:12 | 17.67797 | -97.27443 | 30000 ft | 454 kts | 316° |
| 2026-04-24 02:12 | 17.72328 | -97.32077 | 30005 ft | 457 kts | 316° |
| 2026-04-24 02:13 | 17.76911 | -97.36722 | 29999 ft | 464 kts | 317° |
| 2026-04-24 02:13 | 17.81576 | -97.41436 | 29977 ft | 465 kts | 317° |
| 2026-04-24 02:14 | 17.86228 | -97.46139 | 29971 ft | 464 kts | 317° |
| 2026-04-24 02:14 | 17.90871 | -97.50837 | 29953 ft | 463 kts | 317° |
| 2026-04-24 02:15 | 17.95497 | -97.55522 | 29956 ft | 461 kts | 317° |
| 2026-04-24 02:15 | 18.00123 | -97.60211 | 29940 ft | 461 kts | 317° |
| 2026-04-24 02:16 | 18.04740 | -97.64895 | 29929 ft | 461 kts | 317° |
| 2026-04-24 02:16 | 18.09361 | -97.69586 | 29917 ft | 461 kts | 316° |
| 2026-04-24 02:17 | 18.13980 | -97.74280 | 29901 ft | 462 kts | 316° |
| 2026-04-24 02:17 | 18.18571 | -97.78949 | 29891 ft | 462 kts | 316° |
| 2026-04-24 02:18 | 18.23189 | -97.83647 | 29880 ft | 461 kts | 316° |
| 2026-04-24 02:18 | 18.27796 | -97.88336 | 29869 ft | 461 kts | 316° |
| 2026-04-24 02:19 | 18.32396 | -97.93021 | 29865 ft | 460 kts | 316° |
| 2026-04-24 02:19 | 18.36991 | -97.97707 | 29848 ft | 459 kts | 316° |
| 2026-04-24 02:20 | 18.41581 | -98.02391 | 29849 ft | 459 kts | 316° |
| 2026-04-24 02:20 | 18.46154 | -98.07062 | 29827 ft | 451 kts | 316° |
| 2026-04-24 02:21 | 18.50536 | -98.11542 | 29835 ft | 438 kts | 316° |
| 2026-04-24 02:21 | 18.54927 | -98.16032 | 29427 ft | 443 kts | 316° |
| 2026-04-24 02:22 | 18.57123 | -98.18280 | 28786 ft | 437 kts | 316° |
| 2026-04-24 02:22 | 18.59283 | -98.20492 | 28088 ft | 430 kts | 316° |
| 2026-04-24 02:22 | 18.61420 | -98.22681 | 27365 ft | 424 kts | 316° |
| 2026-04-24 02:22 | 18.63524 | -98.24838 | 26658 ft | 419 kts | 316° |
| 2026-04-24 02:23 | 18.65602 | -98.26968 | 25962 ft | 415 kts | 316° |
| 2026-04-24 02:23 | 18.67665 | -98.29083 | 25259 ft | 412 kts | 316° |
| 2026-04-24 02:23 | 18.69726 | -98.31163 | 24540 ft | 409 kts | 320° |
| 2026-04-24 02:23 | 18.72134 | -98.32746 | 23895 ft | 407 kts | 336° |
| 2026-04-24 02:24 | 18.74809 | -98.33575 | 23563 ft | 399 kts | 351° |
| 2026-04-24 02:24 | 18.77565 | -98.33867 | 23236 ft | 400 kts | 354° |
| 2026-04-24 02:24 | 18.80363 | -98.34077 | 22913 ft | 405 kts | 355° |
| 2026-04-24 02:24 | 18.83188 | -98.34273 | 22628 ft | 406 kts | 355° |
| 2026-04-24 02:25 | 18.85968 | -98.34474 | 22347 ft | 402 kts | 355° |
| 2026-04-24 02:25 | 18.88750 | -98.34689 | 22095 ft | 400 kts | 354° |
| 2026-04-24 02:25 | 18.91518 | -98.34914 | 21839 ft | 397 kts | 354° |
| 2026-04-24 02:25 | 18.94269 | -98.35145 | 21580 ft | 395 kts | 354° |
| 2026-04-24 02:26 | 18.97004 | -98.35379 | 21318 ft | 394 kts | 354° |
| 2026-04-24 02:26 | 18.99730 | -98.35613 | 21063 ft | 392 kts | 354° |
| 2026-04-24 02:26 | 19.02448 | -98.35846 | 20798 ft | 391 kts | 354° |
| 2026-04-24 02:26 | 19.05159 | -98.36079 | 20541 ft | 390 kts | 354° |
| 2026-04-24 02:27 | 19.07861 | -98.36311 | 20269 ft | 389 kts | 354° |
| 2026-04-24 02:27 | 19.10555 | -98.36542 | 19976 ft | 387 kts | 354° |
| 2026-04-24 02:27 | 19.13233 | -98.36772 | 19685 ft | 386 kts | 354° |
| 2026-04-24 02:27 | 19.15910 | -98.37002 | 19383 ft | 384 kts | 354° |
| 2026-04-24 02:28 | 19.18525 | -98.37319 | 19039 ft | 382 kts | 351° |
| 2026-04-24 02:28 | 19.21145 | -98.37736 | 18582 ft | 375 kts | 350° |
| 2026-04-24 02:28 | 19.23688 | -98.38170 | 18208 ft | 363 kts | 350° |
| 2026-04-24 02:28 | 19.26137 | -98.38586 | 17934 ft | 350 kts | 350° |
| 2026-04-24 02:29 | 19.28477 | -98.38975 | 17910 ft | 331 kts | 350° |
| 2026-04-24 02:29 | 19.30719 | -98.39340 | 17422 ft | 327 kts | 351° |
| 2026-04-24 02:29 | 19.32937 | -98.39698 | 17088 ft | 319 kts | 351° |
| 2026-04-24 02:29 | 19.35114 | -98.40046 | 16808 ft | 313 kts | 351° |
| 2026-04-24 02:30 | 19.37253 | -98.40388 | 16544 ft | 311 kts | 351° |
| 2026-04-24 02:30 | 19.39393 | -98.40730 | 16284 ft | 310 kts | 351° |
| 2026-04-24 02:30 | 19.41524 | -98.41070 | 16024 ft | 310 kts | 351° |
| 2026-04-24 02:30 | 19.43653 | -98.41410 | 15766 ft | 309 kts | 351° |
| 2026-04-24 02:31 | 19.45787 | -98.41751 | 15505 ft | 309 kts | 351° |
| 2026-04-24 02:31 | 19.47912 | -98.42090 | 15248 ft | 309 kts | 351° |
| 2026-04-24 02:31 | 19.50041 | -98.42431 | 14990 ft | 309 kts | 351° |
| 2026-04-24 02:31 | 19.52169 | -98.42781 | 14795 ft | 309 kts | 347° |
| 2026-04-24 02:32 | 19.54140 | -98.43679 | 14731 ft | 308 kts | 323° |
| 2026-04-24 02:32 | 19.55598 | -98.45277 | 14593 ft | 304 kts | 307° |
| 2026-04-24 02:32 | 19.56806 | -98.47115 | 14358 ft | 305 kts | 304° |
| 2026-04-24 02:32 | 19.57982 | -98.48994 | 14147 ft | 306 kts | 304° |
| 2026-04-24 02:33 | 19.58928 | -98.51005 | 13891 ft | 307 kts | 285° |
| 2026-04-24 02:33 | 19.59256 | -98.53237 | 13698 ft | 306 kts | 275° |
| 2026-04-24 02:33 | 19.59296 | -98.55484 | 13512 ft | 304 kts | 271° |
| 2026-04-24 02:33 | 19.59255 | -98.57721 | 13350 ft | 303 kts | 270° |
| 2026-04-24 02:34 | 19.59206 | -98.59966 | 13179 ft | 305 kts | 270° |
| 2026-04-24 02:34 | 19.59165 | -98.62219 | 12999 ft | 306 kts | 270° |
| 2026-04-24 02:34 | 19.59135 | -98.64468 | 12837 ft | 305 kts | 271° |
| 2026-04-24 02:34 | 19.59113 | -98.66721 | 12647 ft | 305 kts | 271° |
| 2026-04-24 02:35 | 19.59095 | -98.68860 | 12505 ft | 302 kts | 271° |
| 2026-04-24 02:35 | 19.59080 | -98.71015 | 12365 ft | 291 kts | 271° |
| 2026-04-24 02:35 | 19.59066 | -98.73127 | 12205 ft | 281 kts | 271° |
| 2026-04-24 02:35 | 19.59052 | -98.75158 | 12083 ft | 271 kts | 271° |
| 2026-04-24 02:36 | 19.59038 | -98.77131 | 11940 ft | 263 kts | 271° |
| 2026-04-24 02:36 | 19.58968 | -98.79041 | 11792 ft | 257 kts | 261° |
| 2026-04-24 02:36 | 19.58302 | -98.80789 | 11559 ft | 255 kts | 241° |
| 2026-04-24 02:36 | 19.57398 | -98.82396 | 11315 ft | 252 kts | 240° |
| 2026-04-24 02:37 | 19.56498 | -98.83978 | 11098 ft | 248 kts | 240° |
| 2026-04-24 02:37 | 19.55625 | -98.85519 | 10843 ft | 240 kts | 240° |
| 2026-04-24 02:37 | 19.54780 | -98.87008 | 10622 ft | 230 kts | 239° |
| 2026-04-24 02:37 | 19.53975 | -98.88414 | 10528 ft | 215 kts | 239° |
| 2026-04-24 02:38 | 19.53236 | -98.89724 | 10452 ft | 199 kts | 240° |
| 2026-04-24 02:38 | 19.52539 | -98.90970 | 10243 ft | 193 kts | 240° |
| 2026-04-24 02:38 | 19.51866 | -98.92176 | 10034 ft | 187 kts | 239° |
| 2026-04-24 02:38 | 19.51212 | -98.93347 | 9806 ft | 182 kts | 240° |
| 2026-04-24 02:39 | 19.50579 | -98.94482 | 9581 ft | 180 kts | 240° |
| 2026-04-24 02:39 | 19.49940 | -98.95627 | 9389 ft | 180 kts | 240° |
| 2026-04-24 02:39 | 19.49314 | -98.96749 | 9250 ft | 171 kts | 239° |
| 2026-04-24 02:39 | 19.48739 | -98.97779 | 9144 ft | 155 kts | 239° |
| 2026-04-24 02:40 | 19.48205 | -98.98735 | 8972 ft | 145 kts | 238° |
| 2026-04-24 02:40 | 19.47691 | -98.99656 | 8834 ft | 147 kts | 237° |
| 2026-04-24 02:40 | 19.47165 | -99.00601 | 8702 ft | 151 kts | 238° |
| 2026-04-24 02:40 | 19.46629 | -99.01565 | 8448 ft | 152 kts | 238° |
| 2026-04-24 02:41 | 19.46093 | -99.02514 | 8133 ft | 147 kts | 239° |
| 2026-04-24 02:41 | 19.45583 | -99.03433 | 7831 ft | 141 kts | 240° |
| 2026-04-24 02:41 | 19.45084 | -99.04327 | 7584 ft | 141 kts | 239° |
| 2026-04-24 02:41 | 19.44584 | -99.05222 | 7381 ft | 141 kts | 239° |
| 2026-04-24 02:42 | 19.44111 | -99.06068 | 7300 ft | 118 kts | 239° |
| 2026-04-24 02:42 | 19.43772 | -99.06676 | 7302 ft | 74 kts | 239° |
| 2026-04-24 02:42 | 19.43583 | -99.07012 | 7301 ft | 40 kts | 239° |
| 2026-04-24 02:42 | 19.43448 | -99.07252 | 7301 ft | 36 kts | 239° |
| 2026-04-24 02:43 | 19.43350 | -99.07408 | 7303 ft | 18 kts | 219° |
| 2026-04-24 02:43 | 19.43256 | -99.07439 | 7302 ft | 14 kts | 193° |
| 2026-04-24 02:43 | 19.43165 | -99.07463 | 7302 ft | 13 kts | 197° |
| 2026-04-24 02:43 | 19.43099 | -99.07522 | 7302 ft | 13 kts | 240° |
| 2026-04-24 02:44 | 19.43055 | -99.07602 | 7302 ft | 12 kts | 239° |
| 2026-04-24 02:44 | 19.43011 | -99.07680 | 7302 ft | 12 kts | 238° |
| 2026-04-24 02:44 | 19.42966 | -99.07754 | 7302 ft | 12 kts | 233° |
| 2026-04-24 02:44 | 19.42906 | -99.07811 | 7302 ft | 12 kts | 210° |
| 2026-04-24 02:45 | 19.42832 | -99.07853 | 7302 ft | 13 kts | 208° |
| 2026-04-24 02:45 | 19.42748 | -99.07877 | 7302 ft | 13 kts | 166° |
| 2026-04-24 02:45 | 19.42671 | -99.07830 | 7302 ft | 13 kts | 148° |
| 2026-04-24 02:45 | 19.42617 | -99.07820 | 7302 ft | 7 kts | 220° |
| 2026-04-24 02:46 | 19.42592 | -99.07864 | 7302 ft | 7 kts | 240° |
| 2026-04-24 02:46 | 19.42567 | -99.07908 | 7302 ft | 7 kts | 239° |
| 2026-04-24 02:46 | 19.42542 | -99.07953 | 7302 ft | 7 kts | 239° |
| 2026-04-24 02:46 | 19.42513 | -99.08005 | 7302 ft | 11 kts | 239° |
| 2026-04-24 02:47 | 19.42468 | -99.08084 | 7302 ft | 13 kts | 239° |
| 2026-04-24 02:47 | 19.42425 | -99.08163 | 7302 ft | 12 kts | 239° |
| 2026-04-24 02:47 | 19.42354 | -99.08200 | 7302 ft | 12 kts | 179° |
| 2026-04-24 02:47 | 19.42271 | -99.08204 | 7302 ft | 12 kts | 184° |
| 2026-04-24 02:48 | 19.42209 | -99.08190 | 7302 ft | 2 kts | 134° |
| 2026-04-24 02:48 | 19.42197 | -99.08184 | 7302 ft | 2 kts | 181° |
| 2026-04-24 02:48 | 19.42183 | -99.08190 | 7302 ft | 2 kts | 211° |
| 2026-04-24 02:48 | 19.42175 | -99.08196 | 7302 ft | 2 kts | 211° |
| 2026-04-24 02:49 | 19.42166 | -99.08202 | 7302 ft | 0 kts | 211° |